Valencia

Airport
ICAO code: 
LEVC
Summary
ICAO Region: 
EUR
Territory: 
Location: 
Manises,
Coordinates: 
Aerial View: 
39° 29' 21.48" N, 0° 28' 53.85" W
Metar
Observation
LEVC 180430Z 26005KT CAVOK M01/M03 Q1030 NOSIG
Station
Valencia / Aeropuerto
Date/Time
2022-01-18 04:30:00
Wind direction
260°
Wind speed
05 kts
Lowest cloud amount
clouds and visibility OK
Temperature
-1°C
Dew point
-3°C
Humidity
86%
QNH
1030 hPa
Weather condition
n/a

Description

Valencia Airport in Manises, also known as Manises Airport. It is situated 8 km west of the city of Valencia.

Climatology

Dry-summer subtropical ”Mediterranean" climate (Köppen climate classification Csa) - characterized by hot, dry summers and mild winters. During the summer, subtropical high pressure cells dominate, making rainfall unlikely except for the occasional thunderstorm. In the winter, periodic storms bring rain (snow at higher elevations).

Runways

Designator Length Width Surface Rops
4/22 1644 45 ASP Yes/Yes
12/30 2700 45 ASP Yes/Yes
Airport map: 
Aerial View: 

Accidents and Serious Incidents at or in the vicinity of LEVC

SKYbrary Partners:

Safety knowledge contributed by: